Latest Coastal Weather Observations for Samuel Hill

IDQ60701

Issued at 5:21 pm EST Tuesday 30 May 2017 (issued every 10 minutes, with the page automatically refreshed every 10 minutes)

About coastal observations | Map of coastal stations | Coastal observations for QLD | Marine services | Other Formats
Station Details ID: 033308 Name: SAMUEL HILL AERO Lat: -22.74 Lon: 150.66 Height: 31.0 m
Data from the previous 72 hours. | See also: Recent months at Samuel Hill
Date/Time
EST
Temp
°C
Wind Pressure Rain since
9am
mm
Weather Cloud Vis
km
Sea
Height
m
Swell
Dir  Spd
kts
Gust
kts
hPa Trend Height
m
Period
s
Dir
30/05:00pm 21.9 SE 5 7 1019.6 - 0.0 - - 10 - - - -
30/04:30pm 22.6 SE 7 12 1019.3 - 0.0 - Partly cloudy 10 - - - -
30/04:00pm 23.2 SE 8 12 1019.1 - 0.0 - Partly cloudy 10 - - - -
30/03:30pm 23.6 SE 8 12 1018.8 - 0.0 - Partly cloudy 10 - - - -
30/03:00pm 24.4 ESE 9 12 1018.8 - 0.0 - Partly cloudy 10 - - - -
30/02:30pm 24.5 SE 9 13 1018.7 - 0.0 - Partly cloudy 10 - - - -
30/02:00pm 24.9 SE 8 10 1018.8 - 0.0 - Partly cloudy 10 - - - -
30/01:30pm 25.0 SE 8 13 1019.0 - 0.0 - Partly cloudy 10 - - - -
30/01:00pm 24.8 SE 9 13 1019.1 - 0.0 - Partly cloudy 10 - - - -
30/12:30pm 24.7 SE 8 12 1019.7 - 0.0 - Partly cloudy 10 - - - -
30/12:00pm 24.0 SE 8 15 1019.9 - 0.0 - Cloudy 10 - - - -
30/11:30am 24.1 SE 8 13 1020.1 - 0.0 - Partly cloudy 10 - - - -
30/11:00am 23.2 SSE 7 9 1020.5 - 0.0 - Partly cloudy 10 - - - -
30/10:30am 23.0 SSE 6 9 1020.6 - 0.0 - Partly cloudy 10 - - - -
30/10:00am 22.3 SSE 6 9 1020.6 - 0.0 - Partly cloudy 10 - - - -
30/09:30am 21.4 S 6 10 1020.8 - 0.0 - - 10 - - - -
30/09:00am 20.7 S 4 6 1020.5 - 0.0 - Cloudy 10 - - - -
30/08:30am 19.9 SE 4 6 1020.3 - 0.0 - - 10 - - - -
30/08:00am 18.5 ESE 1 4 1020.1 - 0.0 - Partly cloudy 10 - - - -
30/07:30am 17.7 SW 4 5 1020.4 - 0.0 - - 10 - - - -
30/07:00am 17.2 W 4 4 1019.9 - 0.0 - Partly cloudy 10 - - - -
30/06:30am 17.0 CALM 0 0 1019.9 - 0.0 - - 10 - - - -
30/06:00am 16.8 SE 5 7 1018.7 - 0.0 - Cloudy 10 - - - -
30/05:30am 16.7 CALM 0 3 1019.7 - 0.0 - - 10 - - - -
30/05:00am 16.6 WSW 4 6 1019.2 - 0.0 - - 10 - - - -
30/04:30am 16.4 CALM 0 0 1018.4 - 0.0 - - 10 - - - -
30/04:00am 16.5 CALM 0 4 1018.3 - 0.0 - - 10 - - - -
30/03:30am 16.6 CALM 0 0 1018.4 - 0.0 - - 10 - - - -
30/03:00am 16.7 SSW 2 4 1019.3 - 0.0 - Cloudy 10 - - - -
30/02:30am 16.9 CALM 0 0 1018.6 - 0.0 - - 10 - - - -
30/02:00am 16.6 CALM 0 0 1018.9 - 0.0 - - 10 - - - -
30/01:30am 16.7 CALM 0 0 1019.4 - 0.0 - - 10 - - - -
30/01:00am 17.0 CALM 0 0 1019.3 - 0.0 - - 10 - - - -
30/12:30am 16.9 W 1 4 1019.1 - 0.0 - - 10 - - - -
30/12:00am 17.1 CALM 0 0 1019.1 - 0.0 - Mostly cloudy 10 - - - -
 
Date/Time
EST
Temp
°C
Wind Pressure Rain since
9am
mm
Weather Cloud Vis
km
Sea
Height
m
Swell
Dir  Spd
kts
Gust
kts
hPa Trend Height
m
Period
s
Dir
29/11:30pm 17.3 CALM 0 0 1019.3 - 0.0 - - 10 - - - -
29/11:00pm 17.5 CALM 0 0 1019.1 - 0.0 - - 10 - - - -
29/10:30pm 17.3 CALM 0 0 1019.6 - 0.0 - - 10 - - - -
29/10:00pm 17.7 CALM 0 0 1019.7 - 0.0 - - 10 - - - -
29/09:30pm 17.8 CALM 0 0 1019.7 - 0.0 - - 10 - - - -
29/09:00pm 18.0 CALM 0 0 1019.7 - 0.0 - Cloudy 10 - - - -
29/08:30pm 18.0 CALM 0 0 1019.5 - 0.0 - - 10 - - - -
29/08:00pm 18.5 CALM 0 0 1019.2 - 0.0 - - 10 - - - -
29/07:30pm 19.0 CALM 0 0 1019.4 - 0.0 - - 10 - - - -
29/07:00pm 18.9 CALM 0 0 1018.7 - 0.0 - - 10 - - - -
29/06:30pm 19.0 CALM 0 0 1018.5 - 0.0 - - 10 - - - -
29/06:00pm 19.7 CALM 0 0 1018.3 - 0.0 - Cloudy 10 - - - -
29/05:30pm 20.7 CALM 0 0 1018.0 - 0.0 - - 10 - - - -
29/05:00pm 21.5 CALM 0 0 1017.6 - 0.0 - - 10 - - - -
29/04:30pm 22.2 CALM 0 0 1017.5 - 0.0 - - 10 - - - -
29/04:00pm 23.1 E 5 7 1017.0 - 0.0 - - 10 - - - -
29/03:30pm 24.4 ESE 5 7 1017.3 - 0.0 - - 10 - - - -
29/03:00pm 25.4 ESE 6 9 1017.0 - 0.0 - Partly cloudy 10 - - - -
29/02:30pm 26.0 ESE 5 7 1017.0 - 0.0 - Partly cloudy 10 - - - -
29/02:00pm 26.3 ESE 6 11 1017.1 - 0.0 - Partly cloudy 10 - - - -
29/01:30pm 26.0 SW 5 8 1017.3 - 0.0 - - 10 - - - -
29/01:00pm 25.9 SE 5 7 1017.7 - 0.0 - - 10 - - - -
29/12:30pm 25.6 SSE 5 7 1017.9 - 0.0 - - 10 - - - -
29/12:00pm 25.5 SE 1 6 1018.5 - 0.0 - - 10 - - - -
29/11:30am 23.7 S 5 7 1019.0 - 0.0 - Partly cloudy 10 - - - -
29/11:00am 24.1 SSW 5 7 1019.2 - 0.0 - Partly cloudy 10 - - - -
29/10:30am 23.9 S 5 7 1019.5 - 0.0 - Partly cloudy 10 - - - -
29/10:00am 22.9 SE 5 7 1019.7 - 0.0 - - 10 - - - -
29/09:30am 22.1 S 4 6 1019.8 - 0.0 - - 10 - - - -
29/09:00am 19.8 S 4 5 1019.7 - 0.2 - - 10 - - - -
29/08:30am 17.8 CALM 0 0 1019.6 - 0.2 - - 10 - - - -
29/08:06am 16.2 CALM 0 0 1019.1 - 0.2 - Partly cloudy 10 - - - -
29/08:00am 15.9 CALM 0 0 1019.1 - 0.2 - Partly cloudy 10 - - - -
29/07:30am 14.2 CALM 0 0 1019.1 - 0.2 - Cloudy - - - - -
29/07:00am 13.0 CALM 0 0 1018.6 - 0.2 - Cloudy - - - - -
29/06:30am 12.3 CALM 0 0 1018.6 - 0.2 - Partly cloudy - - - - -
29/06:00am 12.5 CALM 0 0 1018.4 - 0.2 - Mostly clear - - - - -
29/05:30am 12.8 CALM 0 0 1018.3 - 0.2 - Partly cloudy - - - - -
29/05:00am 12.4 CALM 0 0 1018.1 - 0.2 - - - - - - -
29/04:30am 12.7 CALM 0 0 1017.8 - 0.2 - - - - - - -
29/04:00am 12.8 CALM 0 0 1017.8 - 0.2 - - - - - - -
29/03:30am 13.1 CALM 0 0 1017.9 - 0.2 - - - - - - -
29/03:06am 13.2 CALM 0 0 1018.0 - 0.2 - Partly cloudy - - - - -
29/03:00am 13.3 CALM 0 0 1018.0 - 0.2 - Mostly clear - - - - -
29/02:30am 13.7 CALM 0 0 1018.0 - 0.2 - Cloudy - - - - -
29/02:00am 13.8 CALM 0 0 1017.9 - 0.2 - Partly cloudy - - - - -
29/01:30am 13.7 CALM 0 0 1018.3 - 0.2 - Partly cloudy 2 - - - -
29/01:00am 14.1 CALM 0 0 1018.5 - 0.2 - Cloudy 0.3 - - - -
29/12:30am 14.4 CALM 0 0 1018.4 - 0.2 - Cloudy 0.5 - - - -
29/12:00am 14.5 CALM 0 0 1018.4 - 0.2 - Partly cloudy 4 - - - -
 
Date/Time
EST
Temp
°C
Wind Pressure Rain since
9am
mm
Weather Cloud Vis
km
Sea
Height
m
Swell
Dir  Spd
kts
Gust
kts
hPa Trend Height
m
Period
s
Dir
28/11:59pm 14.5 CALM 0 0 1018.4 - 0.2 - Partly cloudy 3 - - - -
28/11:54pm 14.4 CALM 0 0 1018.4 - 0.2 - Partly cloudy 0.8 - - - -
28/11:30pm 14.9 CALM 0 0 1018.5 - 0.2 - Partly cloudy 0.5 - - - -
28/11:00pm 15.0 CALM 0 0 1018.4 - 0.2 - Cloudy 0.6 - - - -
28/10:30pm 14.9 CALM 0 0 1018.8 - 0.2 - Partly cloudy 10 - - - -
28/10:14pm 15.0 CALM 0 0 1018.8 - 0.2 - Partly cloudy 2 - - - -
28/10:03pm 14.9 CALM 0 0 1018.8 - 0.2 - Partly cloudy 6 - - - -
28/10:00pm 15.0 CALM 0 0 1018.8 - 0.2 - Partly cloudy 10 - - - -
28/09:50pm 15.0 CALM 0 0 1018.8 - 0.2 - Partly cloudy 10 - - - -
28/09:32pm 15.3 CALM 0 0 1018.7 - 0.2 - Partly cloudy 7 - - - -
28/09:30pm 15.4 CALM 0 0 1018.7 - 0.2 - Partly cloudy 10 - - - -
28/09:06pm 15.5 CALM 0 0 1018.8 - 0.2 - - 10 - - - -
28/09:00pm 15.7 CALM 0 0 1018.7 - 0.2 - - 10 - - - -
28/08:41pm 15.7 CALM 0 0 1018.7 - 0.2 - - 5 - - - -
28/08:30pm 16.0 CALM 0 4 1018.6 - 0.2 - - 10 - - - -
28/08:00pm 16.5 CALM 0 0 1018.3 - 0.2 - - 10 - - - -
28/07:30pm 17.2 CALM 0 0 1018.2 - 0.2 - - 10 - - - -
28/07:00pm 18.0 CALM 0 0 1018.0 - 0.2 - - 10 - - - -
28/06:30pm 18.3 CALM 0 0 1017.6 - 0.2 - - 10 - - - -
28/06:00pm 19.5 SE 2 3 1017.3 - 0.2 - - 10 - - - -
28/05:30pm 20.7 ESE 3 4 1016.8 - 0.2 - - 10 - - - -
28/05:00pm 22.2 E 5 7 1016.6 - 0.2 - Partly cloudy 10 - - - -
28/04:30pm 22.8 E 6 8 1016.5 - 0.2 - Partly cloudy 10 - - - -
28/04:00pm 24.2 E 7 10 1016.1 - 0.2 - Partly cloudy 10 - - - -
28/03:30pm 24.6 NE 7 11 1016.0 - 0.2 - Partly cloudy 10 - - - -
28/03:00pm 23.4 SE 7 9 1015.9 - 0.2 - Cloudy 10 - - - -
28/02:30pm 25.0 E 7 11 1016.1 - 0.2 - Partly cloudy 10 - - - -
28/02:00pm 24.9 E 6 9 1016.1 - 0.2 - - 10 - - - -
28/01:30pm 24.9 ESE 6 9 1016.3 - 0.2 - Partly cloudy 10 - - - -
28/01:00pm 24.9 SSE 7 9 1016.6 - 0.2 - Cloudy 10 - - - -
28/12:30pm 25.4 SSE 5 7 1016.9 - 0.2 - Partly cloudy 10 - - - -
28/12:00pm 24.4 ESE 5 7 1017.3 - 0.2 Recent precip. Mostly clear 10 - - - -
28/11:30am 23.6 SE 4 6 1017.6 - 0.2 - - 10 - - - -
28/11:00am 24.4 SE 5 7 1018.0 - 0.0 - Partly cloudy 10 - - - -
28/10:30am 24.1 SE 6 9 1018.4 - 0.0 - - 10 - - - -
28/10:00am 23.4 SSE 6 9 1018.6 - 0.0 - - 10 - - - -
28/09:30am 21.7 S 6 9 1018.7 - 0.0 - - 10 - - - -
28/09:00am 20.5 SSE 6 9 1018.7 - 0.0 - - 10 - - - -
28/08:30am 19.0 SSE 5 6 1018.5 - 0.0 - - 10 - - - -
28/08:00am 17.8 S 3 4 1018.5 - 0.0 - - 10 - - - -
28/07:30am 16.4 SW 3 4 1018.4 - 0.0 - Partly cloudy 10 - - - -
28/07:00am 14.3 WSW 3 5 1018.1 - 0.0 - - 10 - - - -
28/06:30am 13.2 SSW 1 4 1018.0 - 0.0 - - 10 - - - -
28/06:00am 12.8 CALM 0 0 1017.8 - 0.0 - - 10 - - - -
28/05:32am 12.8 CALM 0 0 1017.6 - 0.0 - - 10 - - - -
28/05:30am 12.8 CALM 0 0 1017.6 - 0.0 - - 10 - - - -
28/05:11am 12.9 CALM 0 0 1017.5 - 0.0 - - 5 - - - -
28/05:02am 12.8 CALM 0 0 1017.4 - 0.0 - - 10 - - - -
28/05:00am 12.9 CALM 0 0 1017.4 - 0.0 - - 10 - - - -
28/04:30am 13.1 CALM 0 0 1017.5 - 0.0 - Partly cloudy 0.5 - - - -
28/04:11am 13.1 CALM 0 0 1017.5 - 0.0 - - 4 - - - -
28/04:05am 13.1 CALM 0 0 1017.4 - 0.0 - - 10 - - - -
28/04:00am 13.2 CALM 0 0 1017.4 - 0.0 - - 10 - - - -
28/03:30am 13.1 CALM 0 0 1017.5 - 0.0 - - 0.8 - - - -
28/03:09am 13.5 CALM 0 0 1017.6 - 0.0 - Partly cloudy 1 - - - -
28/03:00am 13.4 CALM 0 0 1017.6 - 0.0 - Partly cloudy 0.2 - - - -
28/02:51am 13.5 CALM 0 0 1017.7 - 0.0 - Partly cloudy 0.2 - - - -
28/02:30am 13.3 CALM 0 0 1017.9 - 0.0 - - 2 - - - -
28/02:25am 13.2 CALM 0 0 1018.0 - 0.0 - - 6 - - - -
28/02:20am 13.3 CALM 0 0 1018.0 - 0.0 - - 10 - - - -
28/02:00am 13.7 CALM 0 0 1018.2 - 0.0 - Partly cloudy 0.5 - - - -
28/01:52am 13.6 CALM 0 0 1018.3 - 0.0 - - 5 - - - -
28/01:30am 13.7 CALM 0 0 1018.5 - 0.0 - Partly cloudy 10 - - - -
28/01:27am 13.8 CALM 0 0 1018.5 - 0.0 - Partly cloudy 10 - - - -
28/01:00am 13.9 CALM 0 0 1018.7 - 0.0 - Partly cloudy 0.3 - - - -
28/12:47am 13.7 CALM 0 0 1018.7 - 0.0 - Partly cloudy 7 - - - -
28/12:30am 14.0 CALM 0 0 1018.7 - 0.0 - - 10 - - - -
28/12:00am 13.9 CALM 0 0 1018.9 - 0.0 - - 10 - - - -
 
Date/Time
EST
Temp
°C
Wind Pressure Rain since
9am
mm
Weather Cloud Vis
km
Sea
Height
m
Swell
Dir  Spd
kts
Gust
kts
hPa Trend Height
m
Period
s
Dir
27/11:30pm 14.2 CALM 0 0 1019.0 - 0.0 - - 10 - - - -
27/11:00pm 14.4 CALM 0 0 1019.1 - 0.0 - - 10 - - - -
27/10:30pm 14.7 CALM 0 0 1019.2 - 0.0 - - 10 - - - -
27/10:16pm 14.8 CALM 0 0 1019.2 - 0.0 - - 10 - - - -
27/10:06pm 14.9 CALM 0 0 1019.2 - 0.0 - - 7 - - - -
27/10:00pm 14.9 CALM 0 0 1019.2 - 0.0 - - 8 - - - -
27/09:30pm 15.1 CALM 0 0 1019.2 - 0.0 - - 10 - - - -
27/09:00pm 15.2 CALM 0 0 1019.3 - 0.0 - - 10 - - - -
27/08:30pm 15.8 CALM 0 0 1019.3 - 0.0 - - 10 - - - -
27/08:00pm 16.1 CALM 0 0 1019.0 - 0.0 - - 10 - - - -
27/07:30pm 16.6 S 4 5 1018.8 - 0.0 - - 10 - - - -
27/07:00pm 17.4 S 3 4 1018.6 - 0.0 - - 10 - - - -
27/06:30pm 18.7 S 4 5 1018.3 - 0.0 - - 10 - - - -
27/06:00pm 19.3 SSE 4 4 1017.9 - 0.0 - - 10 - - - -
27/05:30pm 20.1 SSE 4 5 1017.8 - 0.0 - - 10 - - - -

Other Formats:

Comma delimited format used in spreadsheet applications
http://www.bom.gov.au/fwo/IDQ60701/IDQ60701.94370.axf

JavaScript Object Notation format (JSON) in row-major order
http://www.bom.gov.au/fwo/IDQ60701/IDQ60701.94370.json